createdAt,value
2019-01-02T00:00:35.118Z,69.33
2019-01-02T00:03:04.547Z,68.51
2019-01-02T00:05:34.771Z,69.10
2019-01-02T00:08:04.321Z,68.96
2019-01-02T00:10:34.032Z,69.26
2019-01-02T00:13:03.604Z,68.73
2019-01-02T00:15:33.198Z,68.20
2019-01-02T00:18:02.772Z,68.49
2019-01-02T00:20:32.689Z,68.46
2019-01-02T00:23:02.253Z,68.83
2019-01-02T00:25:32.252Z,69.32
2019-01-02T00:28:02.295Z,68.82
2019-01-02T00:30:31.514Z,69.31
2019-01-02T00:33:01.880Z,69.30
2019-01-02T00:35:31.048Z,69.58
2019-01-02T00:38:00.841Z,69.41
2019-01-02T00:40:30.184Z,69.54
2019-01-02T00:42:59.307Z,69.50
2019-01-02T00:45:28.822Z,69.27
2019-01-02T00:47:58.740Z,70.26
2019-01-02T00:50:28.232Z,70.30
2019-01-02T00:52:58.048Z,70.25
2019-01-02T00:55:27.650Z,70.18
2019-01-02T00:57:56.814Z,71.42
2019-01-02T01:00:28.494Z,75.51
2019-01-02T01:02:58.021Z,77.93
2019-01-02T01:05:27.242Z,80.47
2019-01-02T01:07:56.535Z,84.05
2019-01-02T01:10:25.895Z,87.18
2019-01-02T01:12:56.034Z,88.26
2019-01-02T01:15:25.573Z,88.57
2019-01-02T01:17:54.771Z,88.41
2019-01-02T01:20:23.989Z,88.00
2019-01-02T01:22:53.128Z,89.43
2019-01-02T01:25:22.711Z,87.42
2019-01-02T01:27:51.883Z,86.83
2019-01-02T01:30:21.759Z,87.46
2019-01-02T01:32:51.316Z,86.21
2019-01-02T01:35:20.890Z,85.68
2019-01-02T01:37:55.642Z,85.07
2019-01-02T01:40:24.886Z,85.50
2019-01-02T01:42:54.052Z,85.49
2019-01-02T01:45:24.143Z,85.33
2019-01-02T01:47:53.370Z,85.04
2019-01-02T01:50:22.581Z,85.28
2019-01-02T01:52:52.443Z,84.36
2019-01-02T01:55:21.957Z,83.78
2019-01-02T01:57:51.533Z,83.66
2019-01-02T02:00:21.586Z,83.22
2019-01-02T02:02:50.893Z,82.41
2019-01-02T02:05:20.872Z,81.16
2019-01-02T02:07:50.085Z,81.69
2019-01-02T02:10:20.017Z,81.43
2019-01-02T02:12:49.490Z,81.02
2019-01-02T02:15:19.337Z,80.80
2019-01-02T02:17:48.892Z,80.48
2019-01-02T02:20:18.149Z,79.18
2019-01-02T02:22:47.956Z,79.15
2019-01-02T02:25:19.730Z,78.89
2019-01-02T02:27:48.874Z,78.20
2019-01-02T02:30:18.354Z,78.09
2019-01-02T02:32:49.374Z,77.89
2019-01-02T02:35:19.200Z,77.24
2019-01-02T02:37:48.670Z,77.05
2019-01-02T02:40:17.909Z,76.37
2019-01-02T02:42:47.112Z,77.08
2019-01-02T02:45:17.179Z,76.21
2019-01-02T02:47:47.457Z,76.09
2019-01-02T02:50:17.521Z,75.64
2019-01-02T02:52:47.331Z,75.69
2019-01-02T02:55:19.858Z,75.72
2019-01-02T02:57:49.646Z,75.61
2019-01-02T03:00:18.865Z,75.17
2019-01-02T03:02:48.375Z,74.76
2019-01-02T03:05:17.962Z,74.61
2019-01-02T03:07:47.776Z,74.11
2019-01-02T03:10:17.749Z,73.89
2019-01-02T03:12:47.272Z,74.13
2019-01-02T03:15:16.844Z,73.89
2019-01-02T03:17:46.025Z,74.00
2019-01-02T03:20:17.249Z,74.53
2019-01-02T03:22:46.791Z,75.05
2019-01-02T03:25:16.567Z,75.18
2019-01-02T03:27:46.209Z,75.02
2019-01-02T03:30:17.848Z,75.55
2019-01-02T03:32:47.401Z,76.12
2019-01-02T03:35:17.408Z,76.38
2019-01-02T03:37:47.016Z,76.26
2019-01-02T03:40:16.173Z,76.63
2019-01-02T03:42:45.373Z,77.02
2019-01-02T03:45:17.326Z,76.53
2019-01-02T03:47:46.827Z,76.21
2019-01-02T03:50:17.793Z,76.50
2019-01-02T03:52:47.614Z,77.23
2019-01-02T03:55:16.760Z,76.84
2019-01-02T03:57:46.330Z,76.79
2019-01-02T04:00:18.051Z,77.42
2019-01-02T04:02:47.194Z,77.74
2019-01-02T04:05:18.646Z,78.56
2019-01-02T04:07:51.419Z,78.01
2019-01-02T04:10:20.559Z,78.65
2019-01-02T04:12:49.987Z,78.56
2019-01-02T04:15:19.167Z,78.00
2019-01-02T04:17:48.374Z,78.06
2019-01-02T04:20:17.530Z,78.78
2019-01-02T04:22:46.679Z,78.65
2019-01-02T04:25:16.539Z,78.90
2019-01-02T04:27:46.438Z,79.10
2019-01-02T04:30:16.222Z,79.14
2019-01-02T04:32:45.390Z,79.05
2019-01-02T04:35:14.585Z,79.30
2019-01-02T04:37:44.437Z,79.51
2019-01-02T04:40:14.332Z,80.38
2019-01-02T04:42:43.521Z,80.84
2019-01-02T04:45:13.019Z,80.92
2019-01-02T04:47:42.533Z,81.21
2019-01-02T04:50:13.478Z,81.32
2019-01-02T04:52:43.041Z,81.91
2019-01-02T04:55:12.186Z,82.35
2019-01-02T04:57:41.373Z,82.69
2019-01-02T05:00:13.945Z,82.70
2019-01-02T05:02:43.513Z,82.59
2019-01-02T05:05:12.677Z,83.04
2019-01-02T05:07:41.831Z,83.22
2019-01-02T05:10:12.819Z,83.62
2019-01-02T05:12:42.751Z,83.51
2019-01-02T05:15:12.526Z,84.24
2019-01-02T05:17:42.052Z,84.51
2019-01-02T05:20:16.383Z,84.53
2019-01-02T05:22:45.557Z,85.03
2019-01-02T05:25:15.402Z,84.70
2019-01-02T05:27:44.974Z,85.16
2019-01-02T05:30:16.797Z,85.45
2019-01-02T05:32:46.392Z,85.00
2019-01-02T05:35:15.742Z,84.95
2019-01-02T05:37:45.016Z,85.16
2019-01-02T05:40:22.768Z,84.88
2019-01-02T05:42:51.941Z,83.46
2019-01-02T05:45:21.482Z,82.81
2019-01-02T05:47:51.008Z,82.60
2019-01-02T05:50:20.183Z,80.99
2019-01-02T05:52:49.827Z,80.88
2019-01-02T05:55:18.970Z,80.81
2019-01-02T05:57:48.734Z,80.76
2019-01-02T06:00:18.252Z,80.56
2019-01-02T06:02:47.815Z,80.87
2019-01-02T06:05:17.402Z,81.25
2019-01-02T06:07:46.533Z,81.70
2019-01-02T06:10:16.487Z,81.67
2019-01-02T06:12:45.673Z,81.17
2019-01-02T06:15:16.757Z,81.59
2019-01-02T06:17:46.021Z,81.08
2019-01-02T06:20:17.126Z,81.20
2019-01-02T06:22:46.326Z,81.07
2019-01-02T06:25:15.501Z,80.34
2019-01-02T06:27:45.059Z,79.75
2019-01-02T06:30:14.663Z,78.81
2019-01-02T06:32:44.751Z,78.30
2019-01-02T06:35:14.081Z,78.65
2019-01-02T06:37:43.244Z,78.50
2019-01-02T06:40:13.825Z,78.54
2019-01-02T06:42:43.643Z,79.06
2019-01-02T06:45:15.004Z,78.94
2019-01-02T06:47:44.201Z,78.84
2019-01-02T06:50:19.962Z,78.83
2019-01-02T06:52:49.690Z,78.82
2019-01-02T06:55:19.133Z,78.64
2019-01-02T06:57:48.273Z,78.28
2019-01-02T07:00:21.757Z,77.93
2019-01-02T07:02:51.280Z,77.81
2019-01-02T07:05:20.881Z,77.07
2019-01-02T07:07:50.442Z,77.19
2019-01-02T07:10:19.960Z,78.04
2019-01-02T07:12:49.129Z,78.15
2019-01-02T07:15:18.623Z,78.53
2019-01-02T07:17:48.086Z,78.19
2019-01-02T07:20:17.590Z,78.56
2019-01-02T07:22:47.261Z,78.98
2019-01-02T07:25:16.454Z,79.86
2019-01-02T07:27:45.632Z,80.33
2019-01-02T07:30:18.067Z,80.33
2019-01-02T07:32:47.259Z,80.66
2019-01-02T07:36:02.223Z,80.92
2019-01-02T07:39:20.924Z,80.94
2019-01-02T07:42:32.559Z,80.67
2019-01-02T07:45:45.906Z,80.85
2019-01-02T07:48:48.956Z,80.61
2019-01-02T07:51:40.642Z,80.21
2019-01-02T07:55:00.928Z,79.68
2019-01-02T07:58:10.626Z,79.54
2019-01-02T08:01:08.407Z,79.26
2019-01-02T08:04:06.845Z,79.72
2019-01-02T08:07:31.093Z,79.35
2019-01-02T08:11:02.821Z,79.16
2019-01-02T08:14:07.973Z,78.76
2019-01-02T08:17:07.361Z,77.30
2019-01-02T08:20:04.152Z,76.26
2019-01-02T08:23:04.883Z,76.10
2019-01-02T08:26:12.412Z,75.57
2019-01-02T08:29:16.646Z,75.23
2019-01-02T08:32:24.448Z,75.11
2019-01-02T08:35:13.186Z,75.42
2019-01-02T08:38:32.636Z,75.41
2019-01-02T08:41:58.418Z,74.59
2019-01-02T08:45:01.841Z,74.53
2019-01-02T08:48:18.157Z,74.49
2019-01-02T08:51:42.984Z,73.61
2019-01-02T08:55:20.846Z,73.76
2019-01-02T08:58:27.166Z,73.56
2019-01-02T09:01:21.810Z,73.04
2019-01-02T09:04:30.767Z,73.86
2019-01-02T09:07:43.444Z,73.62
2019-01-02T09:10:40.774Z,73.35
2019-01-02T09:14:06.240Z,73.26
2019-01-02T09:17:07.625Z,73.44
2019-01-02T09:20:24.321Z,73.40
2019-01-02T09:23:30.880Z,72.88
2019-01-02T09:26:57.141Z,72.97
2019-01-02T09:30:03.381Z,73.20
2019-01-02T09:32:58.704Z,72.80
2019-01-02T09:35:59.690Z,72.63
2019-01-02T09:39:25.340Z,73.42
2019-01-02T09:42:31.093Z,73.43
2019-01-02T09:45:29.964Z,72.44
2019-01-02T09:48:58.496Z,72.62
2019-01-02T09:52:07.932Z,72.08
2019-01-02T09:55:32.591Z,72.41
2019-01-02T09:58:58.736Z,72.54
2019-01-02T10:02:02.929Z,71.79
2019-01-02T10:05:04.954Z,72.02
2019-01-02T10:07:51.642Z,71.86
2019-01-02T10:10:58.931Z,72.36
2019-01-02T10:14:06.463Z,70.72
2019-01-02T10:17:26.049Z,70.75
2019-01-02T10:20:43.731Z,71.30
2019-01-02T10:23:33.323Z,70.98
2019-01-02T10:26:46.886Z,70.68
2019-01-02T10:29:56.608Z,70.15
2019-01-02T10:32:51.854Z,70.53
2019-01-02T10:36:16.023Z,70.13
2019-01-02T10:39:34.531Z,69.62
2019-01-02T10:42:41.786Z,69.30
2019-01-02T10:45:45.610Z,68.76
2019-01-02T10:49:06.647Z,67.62
2019-01-02T10:52:26.894Z,68.65
2019-01-02T10:55:46.506Z,68.42
2019-01-02T10:58:59.688Z,68.40
2019-01-02T11:01:43.940Z,68.77
2019-01-02T11:04:33.683Z,68.23
2019-01-02T11:07:25.996Z,67.60
2019-01-02T11:10:31.863Z,67.76
2019-01-02T11:13:11.087Z,68.95
2019-01-02T11:16:09.003Z,68.56
2019-01-02T11:19:34.467Z,68.90
2019-01-02T11:23:06.228Z,68.49
2019-01-02T11:26:06.552Z,68.68
2019-01-02T11:29:20.893Z,69.21
2019-01-02T11:32:33.053Z,69.50
2019-01-02T11:35:33.105Z,68.06
2019-01-02T11:38:31.435Z,68.24
2019-01-02T11:41:34.813Z,67.88
2019-01-02T11:44:43.906Z,66.90
2019-01-02T11:47:13.534Z,66.63
2019-01-02T11:49:43.013Z,66.42
2019-01-02T11:52:12.192Z,66.29
2019-01-02T11:54:41.446Z,65.83
2019-01-02T11:57:11.257Z,65.74
2019-01-02T11:59:40.653Z,66.14
2019-01-02T12:02:09.848Z,64.41
2019-01-02T12:04:38.993Z,60.88
2019-01-02T12:07:08.316Z,60.34
2019-01-02T12:09:37.454Z,60.16
2019-01-02T12:12:07.044Z,60.78
2019-01-02T12:14:36.204Z,60.89
2019-01-02T12:17:05.359Z,59.04
2019-01-02T12:19:34.520Z,59.31
2019-01-02T12:22:03.700Z,59.32
2019-01-02T12:24:33.068Z,58.16
2019-01-02T12:27:02.617Z,57.93
2019-01-02T12:29:31.836Z,57.21
2019-01-02T12:32:01.316Z,57.26
2019-01-02T12:34:30.439Z,57.75
2019-01-02T12:37:00.055Z,56.91
2019-01-02T12:39:29.533Z,57.61
2019-01-02T12:41:58.802Z,57.74
2019-01-02T12:44:27.956Z,55.56
2019-01-02T12:46:58.918Z,55.91
2019-01-02T12:49:28.505Z,56.55
2019-01-02T12:51:57.660Z,55.54
2019-01-02T12:54:26.781Z,54.96
2019-01-02T12:56:56.013Z,55.23
2019-01-02T12:59:28.161Z,55.48
2019-01-02T13:02:28.530Z,55.23
2019-01-02T13:05:26.511Z,56.31
2019-01-02T13:08:43.307Z,55.55
2019-01-02T13:11:18.393Z,56.37
2019-01-02T13:14:14.604Z,55.90
2019-01-02T13:17:22.025Z,55.51
2019-01-02T13:20:15.185Z,55.62
2019-01-02T13:23:37.555Z,55.39
2019-01-02T13:26:33.691Z,55.68
2019-01-02T13:29:31.196Z,55.65
2019-01-02T13:32:21.583Z,55.81
2019-01-02T13:35:31.718Z,54.78
2019-01-02T13:38:26.295Z,54.27
2019-01-02T13:42:00.985Z,54.20
2019-01-02T13:44:54.171Z,54.31
2019-01-02T13:48:03.789Z,54.47
2019-01-02T13:51:16.691Z,54.49
2019-01-02T13:53:45.845Z,55.21
2019-01-02T13:56:19.136Z,55.21
2019-01-02T13:58:48.676Z,55.88
2019-01-02T14:01:18.557Z,56.23
2019-01-02T14:03:51.233Z,56.47
2019-01-02T14:06:20.746Z,56.42
2019-01-02T14:08:49.994Z,57.20
2019-01-02T14:11:19.448Z,57.51
2019-01-02T14:13:48.982Z,58.81
2019-01-02T14:16:18.192Z,59.28
2019-01-02T14:18:47.683Z,60.34
2019-01-02T14:21:17.203Z,60.74
2019-01-02T14:23:46.390Z,61.55
2019-01-02T14:26:15.862Z,61.82
2019-01-02T14:28:45.431Z,62.10
2019-01-02T14:31:14.985Z,62.89
2019-01-02T14:33:44.193Z,63.01
2019-01-02T14:36:13.402Z,63.60
2019-01-02T14:38:42.536Z,63.27
2019-01-02T14:41:11.719Z,64.20
2019-01-02T14:43:41.167Z,64.78
2019-01-02T14:46:10.653Z,65.08
2019-01-02T14:48:39.967Z,65.32
2019-01-02T14:51:09.156Z,66.12
2019-01-02T14:53:38.972Z,66.68
2019-01-02T14:56:08.514Z,66.86
2019-01-02T14:58:38.468Z,67.05
2019-01-02T15:01:07.679Z,67.30
2019-01-02T15:03:37.351Z,67.51
2019-01-02T15:06:06.492Z,65.84
2019-01-02T15:08:35.728Z,66.27
2019-01-02T15:11:08.238Z,66.65
2019-01-02T15:13:35.824Z,66.95
2019-01-02T15:16:04.977Z,65.97
2019-01-02T15:18:34.688Z,67.00
2019-01-02T15:21:03.898Z,67.00
2019-01-02T15:23:33.390Z,66.76
2019-01-02T15:26:03.049Z,66.96
2019-01-02T15:28:32.213Z,67.70
2019-01-02T15:31:01.404Z,67.68
2019-01-02T15:33:30.635Z,67.89
2019-01-02T15:35:59.808Z,66.96
2019-01-02T15:38:29.666Z,66.83
2019-01-02T15:40:59.121Z,66.55
2019-01-02T15:43:28.330Z,67.40
2019-01-02T15:45:57.526Z,67.67
2019-01-02T15:48:26.716Z,67.68
2019-01-02T15:50:55.879Z,68.06
2019-01-02T15:53:25.088Z,68.79
2019-01-02T15:55:54.287Z,69.19
2019-01-02T15:58:23.432Z,69.58
2019-01-02T16:00:52.939Z,69.98
2019-01-02T16:03:22.105Z,70.86
2019-01-02T16:05:52.035Z,71.95
2019-01-02T16:08:22.840Z,71.92
2019-01-02T16:10:53.920Z,72.01
2019-01-02T16:13:23.495Z,73.42
2019-01-02T16:15:54.204Z,74.32
2019-01-02T16:18:25.592Z,74.85
2019-01-02T16:20:56.294Z,76.04
2019-01-02T16:23:28.254Z,76.72
2019-01-02T16:25:57.685Z,77.31
2019-01-02T16:28:29.643Z,77.44
2019-01-02T16:30:59.080Z,77.57
2019-01-02T16:33:28.902Z,77.69
2019-01-02T16:35:59.593Z,77.77
2019-01-02T16:38:29.229Z,78.29
2019-01-02T16:40:58.548Z,78.93
2019-01-02T16:43:29.348Z,79.39
2019-01-02T16:45:58.677Z,80.06
2019-01-02T16:48:28.344Z,80.62
2019-01-02T16:50:59.684Z,81.65
2019-01-02T16:53:30.060Z,81.78
2019-01-02T16:56:00.476Z,80.84
2019-01-02T16:58:30.559Z,79.80
2019-01-02T17:01:00.270Z,79.05
2019-01-02T17:03:31.774Z,79.10
2019-01-02T17:06:02.646Z,79.06
2019-01-02T17:08:33.416Z,78.72
2019-01-02T17:11:07.491Z,78.35
2019-01-02T17:13:38.004Z,78.60
2019-01-02T17:16:08.444Z,78.76
2019-01-02T17:18:39.414Z,79.05
2019-01-02T17:21:10.795Z,79.75
2019-01-02T17:23:40.435Z,80.01
2019-01-02T17:26:12.059Z,79.79
2019-01-02T17:28:43.761Z,80.69
2019-01-02T17:31:13.768Z,81.17
2019-01-02T17:33:43.889Z,81.95
2019-01-02T17:36:14.885Z,81.69
2019-01-02T17:38:44.303Z,82.38
2019-01-02T17:41:15.957Z,82.58
2019-01-02T17:43:47.982Z,82.60
2019-01-02T17:46:17.576Z,82.69
2019-01-02T17:48:48.356Z,82.74
2019-01-02T17:51:17.761Z,82.95
2019-01-02T17:53:48.772Z,83.03
2019-01-02T17:56:19.151Z,83.23
2019-01-02T17:58:48.814Z,83.33
2019-01-02T18:01:19.849Z,83.71
2019-01-02T18:03:50.878Z,83.93
2019-01-02T18:06:20.451Z,84.14
2019-01-02T18:08:50.034Z,84.26
2019-01-02T18:11:20.460Z,84.23
2019-01-02T18:13:49.896Z,84.39
2019-01-02T18:16:19.066Z,84.48
2019-01-02T18:18:49.013Z,84.76
2019-01-02T18:21:18.544Z,84.79
2019-01-02T18:23:47.684Z,84.68
2019-01-02T18:26:16.881Z,84.86
2019-01-02T18:28:47.831Z,84.92
2019-01-02T18:31:18.962Z,85.08
2019-01-02T18:33:48.572Z,85.08
2019-01-02T18:36:17.952Z,85.52
2019-01-02T18:38:48.430Z,85.66
2019-01-02T18:41:19.868Z,85.80
2019-01-02T18:43:49.668Z,85.73
2019-01-02T18:46:21.334Z,85.85
2019-01-02T18:48:51.215Z,85.52
2019-01-02T18:51:22.091Z,85.20
2019-01-02T18:53:51.347Z,84.77
2019-01-02T18:56:20.722Z,85.18
2019-01-02T18:58:49.945Z,84.64
2019-01-02T19:01:19.544Z,84.16
2019-01-02T19:03:48.908Z,84.04
2019-01-02T19:06:18.680Z,84.22
2019-01-02T19:08:48.473Z,84.06
2019-01-02T19:11:18.164Z,84.16
2019-01-02T19:13:47.802Z,84.11
2019-01-02T19:16:21.667Z,83.80
2019-01-02T19:18:50.464Z,83.55
2019-01-02T19:21:19.875Z,83.48
2019-01-02T19:23:49.530Z,82.97
2019-01-02T19:26:18.949Z,82.86
2019-01-02T19:28:48.481Z,83.24
2019-01-02T19:31:17.943Z,84.88
2019-01-02T19:33:47.483Z,85.38
2019-01-02T19:36:16.792Z,85.24
2019-01-02T19:38:46.023Z,84.78
2019-01-02T19:41:15.621Z,84.81
2019-01-02T19:43:44.775Z,84.45
2019-01-02T19:46:14.290Z,84.43
2019-01-02T19:48:43.612Z,84.96
2019-01-02T19:51:13.183Z,84.99
2019-01-02T19:53:42.842Z,85.09
2019-01-02T19:56:12.893Z,84.83
2019-01-02T19:58:42.666Z,84.62
2019-01-02T20:01:12.471Z,84.35
2019-01-02T20:03:42.389Z,84.74
2019-01-02T20:06:13.385Z,84.91
2019-01-02T20:08:43.511Z,85.37
2019-01-02T20:11:13.706Z,85.33
2019-01-02T20:13:43.780Z,85.43
2019-01-02T20:16:13.560Z,85.14
2019-01-02T20:18:43.113Z,85.38
2019-01-02T20:21:13.220Z,85.36
2019-01-02T20:23:43.832Z,85.19
2019-01-02T20:26:14.275Z,84.96
2019-01-02T20:28:44.217Z,84.98
2019-01-02T20:31:14.356Z,84.65
2019-01-02T20:33:44.670Z,84.22
2019-01-02T20:36:15.888Z,84.08
2019-01-02T20:38:46.621Z,84.12
2019-01-02T20:41:16.708Z,84.08
2019-01-02T20:43:47.105Z,83.91
2019-01-02T20:46:17.709Z,84.17
2019-01-02T20:48:48.429Z,84.23
2019-01-02T20:51:18.499Z,84.07
2019-01-02T20:53:48.276Z,84.17
2019-01-02T20:56:18.290Z,84.77
2019-01-02T20:58:47.999Z,85.23
2019-01-02T21:01:18.837Z,85.42
2019-01-02T21:03:48.378Z,85.20
2019-01-02T21:06:18.361Z,85.28
2019-01-02T21:08:48.073Z,85.87
2019-01-02T21:11:17.418Z,85.73
2019-01-02T21:13:46.636Z,86.43
2019-01-02T21:16:16.185Z,86.45
2019-01-02T21:18:45.621Z,86.57
2019-01-02T21:21:15.132Z,86.42
2019-01-02T21:23:44.633Z,86.41
2019-01-02T21:26:13.836Z,86.07
2019-01-02T21:28:43.060Z,85.42
2019-01-02T21:31:12.919Z,85.04
2019-01-02T21:33:42.750Z,85.56
2019-01-02T21:36:12.026Z,85.39
2019-01-02T21:38:41.561Z,85.40
2019-01-02T21:41:11.307Z,85.52
2019-01-02T21:43:41.677Z,85.72
2019-01-02T21:46:10.859Z,85.80
2019-01-02T21:48:41.817Z,85.85
2019-01-02T21:51:11.134Z,86.01
2019-01-02T21:53:40.700Z,86.08
2019-01-02T21:56:10.186Z,85.90
2019-01-02T21:58:39.823Z,85.83
2019-01-02T22:01:08.997Z,86.30
2019-01-02T22:03:38.165Z,86.57
2019-01-02T22:06:07.540Z,86.56
2019-01-02T22:08:36.699Z,86.39
2019-01-02T22:11:05.862Z,86.82
2019-01-02T22:13:35.890Z,86.96
2019-01-02T22:16:05.129Z,86.77
2019-01-02T22:18:34.359Z,86.75
2019-01-02T22:21:04.221Z,87.04
2019-01-02T22:23:33.414Z,87.69
2019-01-02T22:26:03.281Z,87.33
2019-01-02T22:28:32.500Z,86.81
2019-01-02T22:31:01.714Z,87.26
2019-01-02T22:33:30.925Z,86.75
2019-01-02T22:36:00.396Z,86.88
2019-01-02T22:38:30.140Z,87.03
2019-01-02T22:40:59.310Z,87.10
2019-01-02T22:43:28.872Z,86.49
2019-01-02T22:45:58.376Z,86.11
2019-01-02T22:48:28.159Z,86.08
2019-01-02T22:50:59.054Z,85.86
2019-01-02T22:53:28.173Z,85.43
2019-01-02T22:55:57.315Z,86.47
2019-01-02T22:58:26.859Z,86.76
2019-01-02T23:01:13.598Z,87.09
2019-01-02T23:04:00.680Z,86.72
2019-01-02T23:06:48.153Z,86.16
2019-01-02T23:09:35.211Z,86.59
2019-01-02T23:12:41.773Z,86.91
2019-01-02T23:15:28.511Z,86.88
2019-01-02T23:18:15.461Z,86.50
2019-01-02T23:21:21.743Z,86.84
2019-01-02T23:24:25.664Z,87.72
2019-01-02T23:27:29.784Z,88.16
2019-01-02T23:30:21.593Z,87.98
2019-01-02T23:33:08.717Z,88.05
2019-01-02T23:35:47.815Z,88.48
2019-01-02T23:38:35.038Z,88.22
2019-01-02T23:41:23.529Z,88.36
2019-01-02T23:44:11.626Z,88.58
2019-01-02T23:47:05.678Z,88.83
2019-01-02T23:50:12.420Z,89.12
2019-01-02T23:53:09.695Z,89.60
2019-01-02T23:56:00.927Z,89.81
2019-01-02T23:58:47.888Z,90.00
